X  Sluiten METAR luchtvaart weer gegevens      EHRD Rotterdam The Hague Airport
Temperatuur
7°C Temperatuur
7°C Dauwpunt
100% Vochtigheid



Wind
11 KM/U
7 MPH
3 M/S
6 KTS



240°
WZW
Huidig weer

Wat bewolking Wat bewolking
Luchtdruk 1010.92 (hPa) - 29.85 (inHg)
Zicht 3.7 (mijl) - 6 (km)
Vliegveld
Vliegveld code EHRD

Locatie : Rotterdam The Hague Airport
Afstand: 16 (km)

Metar:
EHRD 271955Z AUTO 24006KT 6000 FEW010 SCT013 BKN017 07/07 Q1011 NOSIG

Tijd: 27-01-2021 20:55 CET